createdAt,value
2019-02-05T00:00:17.277Z,7.93
2019-02-05T00:02:45.741Z,9.30
2019-02-05T00:05:14.372Z,8.10
2019-02-05T00:07:42.878Z,9.57
2019-02-05T00:10:11.418Z,8.23
2019-02-05T00:12:40.178Z,8.57
2019-02-05T00:15:08.758Z,7.43
2019-02-05T00:17:37.258Z,8.43
2019-02-05T00:20:06.929Z,8.90
2019-02-05T00:22:35.407Z,8.10
2019-02-05T00:25:04.970Z,7.37
2019-02-05T00:27:33.418Z,8.80
2019-02-05T00:30:01.911Z,8.17
2019-02-05T00:32:30.374Z,7.63
2019-02-05T00:34:59.194Z,7.60
2019-02-05T00:37:27.674Z,8.00
2019-02-05T00:39:56.131Z,8.27
2019-02-05T00:42:24.580Z,7.97
2019-02-05T00:44:53.071Z,6.40
2019-02-05T00:47:21.526Z,7.87
2019-02-05T00:49:49.984Z,7.60
2019-02-05T00:52:18.562Z,6.27
2019-02-05T00:54:47.015Z,7.47
2019-02-05T00:57:15.545Z,7.30
2019-02-05T00:59:44.023Z,8.10
2019-02-05T01:02:12.479Z,7.50
2019-02-05T01:04:40.924Z,8.30
2019-02-05T01:07:09.851Z,7.73
2019-02-05T01:09:38.301Z,8.97
2019-02-05T01:12:06.820Z,7.97
2019-02-05T01:14:36.351Z,8.07
2019-02-05T01:17:04.893Z,7.03
2019-02-05T01:19:33.339Z,8.77
2019-02-05T01:22:01.812Z,6.83
2019-02-05T01:24:30.248Z,7.10
2019-02-05T01:26:58.705Z,6.47
2019-02-05T01:29:27.207Z,7.37
2019-02-05T01:31:55.663Z,7.23
2019-02-05T01:34:24.115Z,7.30
2019-02-05T01:36:52.617Z,6.57
2019-02-05T01:39:21.067Z,7.57
2019-02-05T01:41:49.524Z,7.80
2019-02-05T01:44:18.025Z,7.03
2019-02-05T01:46:46.485Z,6.87
2019-02-05T01:49:14.935Z,7.77
2019-02-05T01:51:43.413Z,6.70
2019-02-05T01:54:13.851Z,7.40
2019-02-05T01:56:42.299Z,7.30
2019-02-05T01:59:10.795Z,7.30
2019-02-05T02:01:39.318Z,6.53
2019-02-05T02:04:07.848Z,7.80
2019-02-05T02:06:36.440Z,7.10
2019-02-05T02:09:05.929Z,8.10
2019-02-05T02:11:34.391Z,7.67
2019-02-05T02:14:02.886Z,7.23
2019-02-05T02:16:33.079Z,6.00
2019-02-05T02:19:01.616Z,6.77
2019-02-05T02:21:30.128Z,7.87
2019-02-05T02:23:58.593Z,7.30
2019-02-05T02:26:27.058Z,6.13
2019-02-05T02:28:55.541Z,7.53
2019-02-05T02:31:24.075Z,6.83
2019-02-05T02:33:52.529Z,6.27
2019-02-05T02:36:21.028Z,7.47
2019-02-05T02:38:49.492Z,6.20
2019-02-05T02:41:18.331Z,6.80
2019-02-05T02:43:46.834Z,7.53
2019-02-05T02:46:15.460Z,6.80
2019-02-05T02:48:44.003Z,6.60
2019-02-05T02:51:12.559Z,7.87
2019-02-05T02:53:41.010Z,7.00
2019-02-05T02:56:09.464Z,6.20
2019-02-05T02:58:37.946Z,7.90
2019-02-05T03:01:06.479Z,6.80
2019-02-05T03:03:34.926Z,6.90
2019-02-05T03:06:03.417Z,8.50
2019-02-05T03:08:32.044Z,7.67
2019-02-05T03:11:00.510Z,7.07
2019-02-05T03:13:29.014Z,7.40
2019-02-05T03:15:57.473Z,7.90
2019-02-05T03:18:26.953Z,7.90
2019-02-05T03:20:55.469Z,7.33
2019-02-05T03:23:23.936Z,8.20
2019-02-05T03:25:52.376Z,7.27
2019-02-05T03:28:20.873Z,7.17
2019-02-05T03:30:49.365Z,8.00
2019-02-05T03:33:19.529Z,9.00
2019-02-05T03:35:48.004Z,8.83
2019-02-05T03:38:16.468Z,9.10
2019-02-05T03:41:00.014Z,7.50
2019-02-05T03:43:28.553Z,7.97
2019-02-05T03:45:58.251Z,8.77
2019-02-05T03:48:27.589Z,8.60
2019-02-05T03:51:14.411Z,8.53
2019-02-05T03:54:05.669Z,8.87
2019-02-05T03:56:56.759Z,9.03
2019-02-05T03:59:58.384Z,8.13
2019-02-05T04:02:51.271Z,9.78
2019-02-05T04:05:32.491Z,9.60
2019-02-05T04:08:36.272Z,9.10
2019-02-05T04:11:28.701Z,8.93
2019-02-05T04:14:00.328Z,9.40
2019-02-05T04:16:56.083Z,8.60
2019-02-05T04:19:50.618Z,9.40
2019-02-05T04:22:34.372Z,8.07
2019-02-05T04:25:38.010Z,9.60
2019-02-05T04:28:21.614Z,8.30
2019-02-05T04:31:04.825Z,8.90
2019-02-05T04:34:01.593Z,9.10
2019-02-05T04:36:38.737Z,10.90
2019-02-05T04:39:13.400Z,9.97
2019-02-05T04:41:47.940Z,8.03
2019-02-05T04:44:25.611Z,9.80
2019-02-05T04:47:21.142Z,9.60
2019-02-05T04:49:52.835Z,9.43
2019-02-05T04:52:40.693Z,9.73
2019-02-05T04:55:21.687Z,9.07
2019-02-05T04:57:59.123Z,8.83
2019-02-05T05:00:57.181Z,7.90
2019-02-05T05:03:28.820Z,8.07
2019-02-05T05:06:00.452Z,9.00
2019-02-05T05:08:44.129Z,9.03
2019-02-05T05:11:13.226Z,11.00
2019-02-05T05:13:41.701Z,10.10
2019-02-05T05:16:10.210Z,11.07
2019-02-05T05:18:38.664Z,11.43
2019-02-05T05:21:08.257Z,12.60
2019-02-05T05:23:36.822Z,10.70
2019-02-05T05:26:05.347Z,9.53
2019-02-05T05:28:34.153Z,11.63
2019-02-05T05:31:02.660Z,9.90
2019-02-05T05:33:31.127Z,9.60
2019-02-05T05:35:59.588Z,11.33
2019-02-05T05:38:28.088Z,11.90
2019-02-05T05:40:56.551Z,11.67
2019-02-05T05:43:25.018Z,11.20
2019-02-05T05:45:53.886Z,11.10
2019-02-05T05:48:22.437Z,11.00
2019-02-05T05:50:50.901Z,11.53
2019-02-05T05:53:19.421Z,11.47
2019-02-05T05:55:47.890Z,11.70
2019-02-05T05:58:22.904Z,11.23
2019-02-05T06:00:46.579Z,12.40
2019-02-05T06:03:15.326Z,9.00
2019-02-05T06:05:43.793Z,13.37
2019-02-05T06:08:12.312Z,11.23
2019-02-05T06:10:40.780Z,12.20
2019-02-05T06:13:09.237Z,12.73
2019-02-05T06:15:37.740Z,11.47
2019-02-05T06:18:06.264Z,12.87
2019-02-05T06:20:35.138Z,13.07
2019-02-05T06:23:04.797Z,13.07
2019-02-05T06:25:33.260Z,11.93
2019-02-05T06:28:01.723Z,13.70
2019-02-05T06:30:30.227Z,11.93
2019-02-05T06:32:58.695Z,11.73
2019-02-05T06:35:27.162Z,13.80
2019-02-05T06:37:55.821Z,13.97
2019-02-05T06:40:24.300Z,14.23
2019-02-05T06:42:52.758Z,13.40
2019-02-05T06:45:21.304Z,13.20
2019-02-05T06:47:49.846Z,13.43
2019-02-05T06:50:18.310Z,12.00
2019-02-05T06:52:46.815Z,13.97
2019-02-05T06:55:15.753Z,13.10
2019-02-05T06:57:44.221Z,12.83
2019-02-05T07:00:15.897Z,14.17
2019-02-05T07:02:44.447Z,14.67
2019-02-05T07:05:12.974Z,12.73
2019-02-05T07:07:41.484Z,12.83
2019-02-05T07:10:19.027Z,14.77
2019-02-05T07:12:47.536Z,13.67
2019-02-05T07:15:16.175Z,14.27
2019-02-05T07:17:49.770Z,15.87
2019-02-05T07:20:16.313Z,13.80
2019-02-05T07:22:45.120Z,14.70
2019-02-05T07:25:21.590Z,15.50
2019-02-05T07:27:50.426Z,14.80
2019-02-05T07:30:24.244Z,13.20
2019-02-05T07:32:52.764Z,14.40
2019-02-05T07:35:21.302Z,14.77
2019-02-05T07:37:50.016Z,15.83
2019-02-05T07:40:20.921Z,14.00
2019-02-05T07:42:49.521Z,13.80
2019-02-05T07:45:20.238Z,13.80
2019-02-05T07:47:48.939Z,13.40
2019-02-05T07:50:20.323Z,15.03
2019-02-05T07:52:48.788Z,14.70
2019-02-05T07:55:17.295Z,12.80
2019-02-05T07:57:46.218Z,15.87
2019-02-05T08:00:23.709Z,15.00
2019-02-05T08:02:52.239Z,15.30
2019-02-05T08:05:32.432Z,15.20
2019-02-05T08:08:01.842Z,15.70
2019-02-05T08:10:30.455Z,14.20
2019-02-05T08:12:59.026Z,15.03
2019-02-05T08:15:29.645Z,14.87
2019-02-05T08:17:58.117Z,14.17
2019-02-05T08:20:26.697Z,14.50
2019-02-05T08:22:55.163Z,14.43
2019-02-05T08:25:23.633Z,15.60
2019-02-05T08:27:53.105Z,16.03
2019-02-05T08:30:36.689Z,15.20
2019-02-05T08:33:05.578Z,15.97
2019-02-05T08:35:34.192Z,16.87
2019-02-05T08:38:02.725Z,14.77
2019-02-05T08:40:31.260Z,15.80
2019-02-05T08:42:59.907Z,14.57
2019-02-05T08:45:36.663Z,15.63
2019-02-05T08:48:07.281Z,16.27
2019-02-05T08:50:36.110Z,16.47
2019-02-05T08:53:04.662Z,15.20
2019-02-05T08:55:33.128Z,16.27
2019-02-05T08:58:07.802Z,14.07
2019-02-05T09:00:38.838Z,15.57
2019-02-05T09:03:09.452Z,14.50
2019-02-05T09:05:37.989Z,13.70
2019-02-05T09:08:06.575Z,16.23
2019-02-05T09:10:36.791Z,14.07
2019-02-05T09:13:05.942Z,13.87
2019-02-05T09:15:34.452Z,16.80
2019-02-05T09:18:02.994Z,16.73
2019-02-05T09:20:31.456Z,14.80
2019-02-05T09:23:00.048Z,15.87
2019-02-05T09:25:28.517Z,16.63
2019-02-05T09:27:56.975Z,16.13
2019-02-05T09:30:28.781Z,13.70
2019-02-05T09:32:59.577Z,15.27
2019-02-05T09:35:28.116Z,14.73
2019-02-05T09:37:57.915Z,15.90
2019-02-05T09:40:29.021Z,16.50
2019-02-05T09:42:57.731Z,15.30
2019-02-05T09:45:27.350Z,13.90
2019-02-05T09:47:56.099Z,15.17
2019-02-05T09:50:24.599Z,14.30
2019-02-05T09:52:53.073Z,16.10
2019-02-05T09:55:22.005Z,13.63
2019-02-05T09:57:50.482Z,14.70
2019-02-05T10:00:24.932Z,17.30
2019-02-05T10:02:53.877Z,12.83
2019-02-05T10:05:27.085Z,16.50
2019-02-05T10:07:55.578Z,14.73
2019-02-05T10:10:24.239Z,15.57
2019-02-05T10:12:52.845Z,14.53
2019-02-05T10:15:27.577Z,13.23
2019-02-05T10:17:56.123Z,14.20
2019-02-05T10:20:25.134Z,13.80
2019-02-05T10:22:55.391Z,15.73
2019-02-05T10:25:23.923Z,14.40
2019-02-05T10:27:52.562Z,14.30
2019-02-05T10:30:23.639Z,14.23
2019-02-05T10:32:52.635Z,14.53
2019-02-05T10:35:21.540Z,13.23
2019-02-05T10:37:50.280Z,12.50
2019-02-05T10:40:19.241Z,12.50
2019-02-05T10:42:47.769Z,12.20
2019-02-05T10:45:22.618Z,12.37
2019-02-05T10:47:51.154Z,12.37
2019-02-05T10:50:20.703Z,10.10
2019-02-05T10:52:49.387Z,11.47
2019-02-05T10:55:20.160Z,12.93
2019-02-05T10:57:50.932Z,12.70
2019-02-05T11:00:25.994Z,11.43
2019-02-05T11:02:55.105Z,10.63
2019-02-05T11:05:26.495Z,11.93
2019-02-05T11:07:55.083Z,12.37
2019-02-05T11:10:23.621Z,11.40
2019-02-05T11:12:52.164Z,10.80
2019-02-05T11:15:26.205Z,10.33
2019-02-05T11:17:54.744Z,12.07
2019-02-05T11:20:25.148Z,11.77
2019-02-05T11:22:53.747Z,11.90
2019-02-05T11:25:22.392Z,10.77
2019-02-05T11:27:50.870Z,11.57
2019-02-05T11:30:31.585Z,11.10
2019-02-05T11:33:00.046Z,10.97
2019-02-05T11:35:29.233Z,11.40
2019-02-05T11:37:57.743Z,11.53
2019-02-05T11:40:34.299Z,11.20
2019-02-05T11:43:02.813Z,10.27
2019-02-05T11:45:31.629Z,8.70
2019-02-05T11:48:01.457Z,11.67
2019-02-05T11:50:30.056Z,11.83
2019-02-05T11:52:58.515Z,11.40
2019-02-05T11:55:34.035Z,11.53
2019-02-05T11:58:02.507Z,12.30
2019-02-05T12:00:38.350Z,11.97
2019-02-05T12:03:11.296Z,12.13
2019-02-05T12:05:40.111Z,12.10
2019-02-05T12:08:08.647Z,11.17
2019-02-05T12:10:37.145Z,11.60
2019-02-05T12:13:05.754Z,12.37
2019-02-05T12:15:34.240Z,11.47
2019-02-05T12:18:02.741Z,10.40
2019-02-05T12:20:31.199Z,9.70
2019-02-05T12:23:00.144Z,10.23
2019-02-05T12:25:28.658Z,10.00
2019-02-05T12:27:57.199Z,11.40
2019-02-05T12:30:45.032Z,10.63
2019-02-05T12:33:07.604Z,11.33
2019-02-05T12:35:36.142Z,10.60
2019-02-05T12:38:06.226Z,12.13
2019-02-05T12:40:35.064Z,10.93
2019-02-05T12:43:03.684Z,10.20
2019-02-05T12:45:35.004Z,11.23
2019-02-05T12:48:03.609Z,10.63
2019-02-05T12:50:37.264Z,11.27
2019-02-05T12:53:06.301Z,10.97
2019-02-05T12:55:34.777Z,10.23
2019-02-05T12:58:03.310Z,11.23
2019-02-05T13:00:40.536Z,10.70
2019-02-05T13:03:09.940Z,12.50
2019-02-05T13:05:39.044Z,10.40
2019-02-05T13:08:07.629Z,12.00
2019-02-05T13:10:47.231Z,9.87
2019-02-05T13:13:18.183Z,11.00
2019-02-05T13:15:47.616Z,8.00
2019-02-05T13:18:16.083Z,10.00
2019-02-05T13:20:44.737Z,11.27
2019-02-05T13:23:13.365Z,11.80
2019-02-05T13:25:42.711Z,11.10
2019-02-05T13:28:12.158Z,10.93
2019-02-05T13:30:40.784Z,11.83
2019-02-05T13:33:10.799Z,12.10
2019-02-05T13:35:39.382Z,12.40
2019-02-05T13:38:07.917Z,11.70
2019-02-05T13:40:37.184Z,11.80
2019-02-05T13:43:06.484Z,10.77
2019-02-05T13:45:37.897Z,12.60
2019-02-05T13:48:07.111Z,11.67
2019-02-05T13:50:35.790Z,11.70
2019-02-05T13:53:04.904Z,11.80
2019-02-05T13:55:38.821Z,10.97
2019-02-05T13:58:07.551Z,11.03
2019-02-05T14:00:44.785Z,12.47
2019-02-05T14:03:13.359Z,10.40
2019-02-05T14:05:41.893Z,11.47
2019-02-05T14:08:10.441Z,12.37
2019-02-05T14:10:44.006Z,12.60
2019-02-05T14:13:12.541Z,13.27
2019-02-05T14:15:43.738Z,11.03
2019-02-05T14:18:12.538Z,11.83
2019-02-05T14:20:41.081Z,11.97
2019-02-05T14:23:09.539Z,10.80
2019-02-05T14:25:38.042Z,12.77
2019-02-05T14:28:06.673Z,11.10
2019-02-05T14:30:37.674Z,12.20
2019-02-05T14:33:06.690Z,11.80
2019-02-05T14:35:35.225Z,12.77
2019-02-05T14:38:04.263Z,12.87
2019-02-05T14:40:32.759Z,12.13
2019-02-05T14:43:01.563Z,13.10
2019-02-05T14:45:30.030Z,10.70
2019-02-05T14:47:58.987Z,11.20
2019-02-05T14:50:38.955Z,11.07
2019-02-05T14:53:08.513Z,11.97
2019-02-05T14:55:37.050Z,12.40
2019-02-05T14:58:07.766Z,12.93
2019-02-05T15:00:37.270Z,12.13
2019-02-05T15:03:10.912Z,11.03
2019-02-05T15:05:40.165Z,12.37
2019-02-05T15:08:09.437Z,11.73
2019-02-05T15:10:37.900Z,12.50
2019-02-05T15:13:06.823Z,10.90
2019-02-05T15:15:35.664Z,11.87
2019-02-05T15:18:05.474Z,13.70
2019-02-05T15:20:39.917Z,11.83
2019-02-05T15:23:08.572Z,12.10
2019-02-05T15:25:37.106Z,11.87
2019-02-05T15:28:05.812Z,11.80
2019-02-05T15:30:36.554Z,13.00
2019-02-05T15:33:08.012Z,11.47
2019-02-05T15:35:37.022Z,12.50
2019-02-05T15:38:05.682Z,10.10
2019-02-05T15:40:34.272Z,12.20
2019-02-05T15:43:03.106Z,11.93
2019-02-05T15:45:31.932Z,12.13
2019-02-05T15:48:00.395Z,12.33
2019-02-05T15:50:28.873Z,10.07
2019-02-05T15:52:57.374Z,11.20
2019-02-05T15:55:25.907Z,11.80
2019-02-05T15:57:54.378Z,11.90
2019-02-05T16:00:24.671Z,10.60
2019-02-05T16:02:53.203Z,12.17
2019-02-05T16:05:21.677Z,12.07
2019-02-05T16:07:50.260Z,11.50
2019-02-05T16:10:25.702Z,11.37
2019-02-05T16:12:54.555Z,11.90
2019-02-05T16:15:23.026Z,11.43
2019-02-05T16:17:51.496Z,7.73
2019-02-05T16:20:21.350Z,12.37
2019-02-05T16:22:50.855Z,11.47
2019-02-05T16:25:19.392Z,14.40
2019-02-05T16:27:47.893Z,12.33
2019-02-05T16:30:22.766Z,7.70
2019-02-05T16:32:51.224Z,9.60
2019-02-05T16:35:19.719Z,9.40
2019-02-05T16:37:48.326Z,12.33
2019-02-05T16:40:19.544Z,11.80
2019-02-05T16:42:48.462Z,11.10
2019-02-05T16:45:19.630Z,10.13
2019-02-05T16:47:48.503Z,11.37
2019-02-05T16:50:28.964Z,11.40
2019-02-05T16:52:57.553Z,11.40
2019-02-05T16:55:25.996Z,11.13
2019-02-05T16:57:54.755Z,11.83
2019-02-05T17:00:33.846Z,12.33
2019-02-05T17:03:02.522Z,11.53
2019-02-05T17:05:33.372Z,10.70
2019-02-05T17:08:02.034Z,10.60
2019-02-05T17:10:30.828Z,10.20
2019-02-05T17:12:59.290Z,10.07
2019-02-05T17:15:27.760Z,9.60
2019-02-05T17:17:56.420Z,11.63
2019-02-05T17:20:26.924Z,12.73
2019-02-05T17:22:55.551Z,10.90
2019-02-05T17:25:26.007Z,10.60
2019-02-05T17:27:55.302Z,9.93
2019-02-05T17:30:26.213Z,10.70
2019-02-05T17:32:54.740Z,12.20
2019-02-05T17:35:23.276Z,12.47
2019-02-05T17:37:51.985Z,12.00
2019-02-05T17:40:22.877Z,12.47
2019-02-05T17:42:52.076Z,12.90
2019-02-05T17:45:32.039Z,10.90
2019-02-05T17:48:02.272Z,13.27
2019-02-05T17:50:31.198Z,14.27
2019-02-05T17:52:59.976Z,10.97
2019-02-05T17:55:28.515Z,10.20
2019-02-05T17:57:56.972Z,12.27
2019-02-05T18:00:36.943Z,11.17
2019-02-05T18:03:06.176Z,13.17
2019-02-05T18:05:35.051Z,12.80
2019-02-05T18:08:03.588Z,11.30
2019-02-05T18:10:32.057Z,11.93
2019-02-05T18:13:00.528Z,11.37
2019-02-05T18:15:35.227Z,13.07
2019-02-05T18:18:03.667Z,11.27
2019-02-05T18:20:33.014Z,13.63
2019-02-05T18:23:01.529Z,12.40
2019-02-05T18:25:30.211Z,11.40
2019-02-05T18:27:58.742Z,14.47
2019-02-05T18:30:34.797Z,12.87
2019-02-05T18:33:05.844Z,12.53
2019-02-05T18:35:33.870Z,13.60
2019-02-05T18:38:04.627Z,13.03
2019-02-05T18:40:33.138Z,12.63
2019-02-05T18:43:01.717Z,12.37
2019-02-05T18:45:30.404Z,12.90
2019-02-05T18:47:58.839Z,11.70
2019-02-05T18:50:28.922Z,12.60
2019-02-05T18:53:00.372Z,13.07
2019-02-05T18:55:34.980Z,13.13
2019-02-05T18:58:09.464Z,13.20
2019-02-05T19:00:38.972Z,11.90
2019-02-05T19:03:14.988Z,13.93
2019-02-05T19:05:38.019Z,12.60
2019-02-05T19:08:06.785Z,13.90
2019-02-05T19:10:35.326Z,12.43
2019-02-05T19:13:04.241Z,12.73
2019-02-05T19:15:35.544Z,12.50
2019-02-05T19:18:05.409Z,13.43
2019-02-05T19:20:33.910Z,12.90
2019-02-05T19:23:03.344Z,13.77
2019-02-05T19:25:36.317Z,13.07
2019-02-05T19:28:05.113Z,13.73
2019-02-05T19:30:37.925Z,11.07
2019-02-05T19:33:06.421Z,12.60
2019-02-05T19:35:34.877Z,13.80
2019-02-05T19:38:03.444Z,14.57
2019-02-05T19:40:31.900Z,14.23
2019-02-05T19:43:00.367Z,12.93
2019-02-05T19:45:30.592Z,13.40
2019-02-05T19:48:01.061Z,13.83
2019-02-05T19:50:29.624Z,13.50
2019-02-05T19:52:58.182Z,13.30
2019-02-05T19:55:26.856Z,15.67
2019-02-05T19:57:55.603Z,13.43
2019-02-05T20:00:24.197Z,15.13
2019-02-05T20:02:55.468Z,16.00
2019-02-05T20:05:22.840Z,14.80
2019-02-05T20:07:53.260Z,14.43
2019-02-05T20:10:21.723Z,13.60
2019-02-05T20:12:50.213Z,14.93
2019-02-05T20:15:19.827Z,15.33
2019-02-05T20:17:48.531Z,14.77
2019-02-05T20:20:22.406Z,13.63
2019-02-05T20:22:51.401Z,16.53
2019-02-05T20:25:20.343Z,15.03
2019-02-05T20:27:48.848Z,16.80
2019-02-05T20:30:19.173Z,14.93
2019-02-05T20:32:47.648Z,16.40
2019-02-05T20:35:16.279Z,16.20
2019-02-05T20:37:44.782Z,15.30
2019-02-05T20:40:19.066Z,17.07
2019-02-05T20:42:47.532Z,14.67
2019-02-05T20:45:16.118Z,16.97
2019-02-05T20:47:44.698Z,15.33
2019-02-05T20:50:20.945Z,17.20
2019-02-05T20:52:49.408Z,17.10
2019-02-05T20:55:22.511Z,17.20
2019-02-05T20:57:51.449Z,15.73
2019-02-05T21:00:28.633Z,17.77
2019-02-05T21:02:57.201Z,19.17
2019-02-05T21:05:25.679Z,17.37
2019-02-05T21:07:54.148Z,20.07
2019-02-05T21:10:25.458Z,16.47
2019-02-05T21:12:53.978Z,17.90
2019-02-05T21:15:22.804Z,19.43
2019-02-05T21:17:51.425Z,18.60
2019-02-05T21:20:30.623Z,20.60
2019-02-05T21:22:57.631Z,19.10
2019-02-05T21:25:27.813Z,19.43
2019-02-05T21:27:58.193Z,16.67
2019-02-05T21:30:26.663Z,20.87
2019-02-05T21:32:55.190Z,20.77
2019-02-05T21:35:23.747Z,18.23
2019-02-05T21:37:52.248Z,19.20
2019-02-05T21:40:23.532Z,19.10
2019-02-05T21:42:51.999Z,20.17
2019-02-05T21:45:32.325Z,19.40
2019-02-05T21:48:00.865Z,19.40
2019-02-05T21:50:29.336Z,20.10
2019-02-05T21:52:58.206Z,19.93
2019-02-05T21:55:27.311Z,18.77
2019-02-05T21:57:56.162Z,19.53
2019-02-05T22:00:34.758Z,19.83
2019-02-05T22:03:03.386Z,18.83
2019-02-05T22:05:32.891Z,18.80
2019-02-05T22:08:01.867Z,18.80
2019-02-05T22:10:30.489Z,19.00
2019-02-05T22:12:59.026Z,18.47
2019-02-05T22:15:27.908Z,20.00
2019-02-05T22:17:56.384Z,21.17
2019-02-05T22:20:28.025Z,20.70
2019-02-05T22:22:57.139Z,20.83
2019-02-05T22:25:30.719Z,20.30
2019-02-05T22:27:59.182Z,22.00
2019-02-05T22:30:36.198Z,22.00
2019-02-05T22:33:07.473Z,19.50
2019-02-05T22:35:36.001Z,20.70
2019-02-05T22:38:04.953Z,22.37
2019-02-05T22:40:33.428Z,18.90
2019-02-05T22:43:02.366Z,21.87
2019-02-05T22:45:31.963Z,21.40
2019-02-05T22:48:00.568Z,20.27
2019-02-05T22:50:31.964Z,21.57
2019-02-05T22:53:01.406Z,20.30
2019-02-05T22:55:29.943Z,20.53
2019-02-05T22:57:58.413Z,21.80
2019-02-05T23:00:34.730Z,20.53
2019-02-05T23:03:03.389Z,21.30
2019-02-05T23:06:11.116Z,21.53
2019-02-05T23:08:39.761Z,21.03
2019-02-05T23:11:40.127Z,21.07
2019-02-05T23:14:08.666Z,20.50
2019-02-05T23:16:37.195Z,21.33
2019-02-05T23:19:05.765Z,21.87
2019-02-05T23:21:34.303Z,20.60
2019-02-05T23:24:02.781Z,20.60
2019-02-05T23:26:31.300Z,20.67
2019-02-05T23:28:59.773Z,19.43
2019-02-05T23:31:28.240Z,22.70
2019-02-05T23:33:56.742Z,20.50
2019-02-05T23:36:25.201Z,21.47
2019-02-05T23:38:53.935Z,22.73
2019-02-05T23:41:22.444Z,22.43
2019-02-05T23:43:50.915Z,20.03
2019-02-05T23:46:19.383Z,19.20
2019-02-05T23:48:47.885Z,20.90
2019-02-05T23:51:16.365Z,21.83
2019-02-05T23:53:44.836Z,20.37
2019-02-05T23:56:25.401Z,22.23
2019-02-05T23:58:45.384Z,18.53
